Time;durP1;ratioP1;P1;durP2;ratioP2;P2;SDS_P1;SDS_P2;PMS_P1;PMS_P2;Temp;Humidity;BMP_temperature;BMP_pressure;BME280_temperature;BME280_humidity;BME280_pressure;Samples;Min_cycle;Max_cycle;Signal;HPM_P1;HPM_P2
2021/03/23 00:02:09;;;;;;;14.10;5.85;;;;;;;3.43;78.76;99859.59;5093589;28;20601;-85
2021/03/23 00:04:36;;;;;;;17.65;6.55;;;;;;;3.50;78.28;99868.91;5093926;28;20052;-84
2021/03/23 00:07:03;;;;;;;14.68;7.55;;;;;;;3.39;78.33;99856.31;5093524;28;20055;-84
2021/03/23 00:09:29;;;;;;;12.40;6.93;;;;;;;3.43;78.23;99857.75;5094319;28;20050;-84
2021/03/23 00:11:57;;;;;;;22.02;7.07;;;;;;;3.33;78.62;99854.13;5094239;28;20047;-85
2021/03/23 00:14:23;;;;;;;13.70;6.28;;;;;;;3.35;78.43;99853.00;5093116;28;20055;-84
2021/03/23 00:16:50;;;;;;;11.35;5.88;;;;;;;3.42;78.30;99869.50;5094344;28;20360;-85
2021/03/23 00:19:17;;;;;;;11.55;6.07;;;;;;;3.35;78.13;99861.06;5084373;28;20056;-85
2021/03/23 00:21:44;;;;;;;20.08;7.07;;;;;;;3.48;78.11;99868.16;5093830;28;20059;-85
2021/03/23 00:24:12;;;;;;;14.60;7.00;;;;;;;3.46;78.25;99870.09;5092256;28;20113;-84
2021/03/23 00:26:38;;;;;;;15.27;6.60;;;;;;;3.40;78.39;99851.78;5093759;28;20047;-85
2021/03/23 00:29:04;;;;;;;17.08;6.65;;;;;;;3.41;78.53;99858.88;5093530;28;20052;-85
2021/03/23 00:31:33;;;;;;;13.38;6.60;;;;;;;3.50;78.76;99871.59;5094031;28;20517;-85
2021/03/23 00:34:01;;;;;;;16.95;6.95;;;;;;;3.39;78.82;99867.06;5091992;28;20143;-84
2021/03/23 00:36:32;;;;;;;17.42;7.30;;;;;;;3.38;78.98;99865.34;5092812;28;20101;-84
2021/03/23 00:39:01;;;;;;;15.25;6.63;;;;;;;3.42;78.85;99858.75;5093327;28;20130;-85
2021/03/23 00:41:34;;;;;;;12.75;6.00;;;;;;;3.35;79.38;99865.59;5086976;28;20408;-85
2021/03/23 00:44:02;;;;;;;13.95;6.95;;;;;;;3.33;79.99;99867.56;5095557;28;20055;-85
2021/03/23 00:46:29;;;;;;;12.57;6.78;;;;;;;3.21;80.31;99858.63;5092661;28;20044;-85
2021/03/23 00:48:55;;;;;;;14.63;6.63;;;;;;;3.33;80.11;99878.31;5093688;28;20056;-85
2021/03/23 00:51:21;;;;;;;18.92;6.47;;;;;;;3.24;79.60;99847.63;5093438;28;20059;-85
2021/03/23 00:53:48;;;;;;;14.18;6.55;;;;;;;3.25;79.23;99851.16;5093094;28;20578;-85
2021/03/23 00:56:16;;;;;;;12.70;7.00;;;;;;;3.25;79.55;99849.34;5092115;28;20126;-85
2021/03/23 00:58:43;;;;;;;16.23;7.28;;;;;;;3.26;79.66;99850.19;5093424;28;20044;-86
2021/03/23 01:01:09;;;;;;;15.13;6.18;;;;;;;3.30;79.48;99860.59;5082129;28;20116;-85
2021/03/23 01:03:36;;;;;;;17.38;7.43;;;;;;;3.33;79.73;99860.34;5092338;28;20079;-85
2021/03/23 01:06:02;;;;;;;18.60;6.45;;;;;;;3.33;79.90;99871.09;5089165;28;20508;-85
2021/03/23 01:08:28;;;;;;;13.75;6.55;;;;;;;3.23;80.33;99861.19;5084509;28;20060;-85
2021/03/23 01:10:55;;;;;;;17.65;6.97;;;;;;;3.17;81.01;99859.84;5092793;28;20036;-85
2021/03/23 01:13:22;;;;;;;15.90;7.05;;;;;;;3.12;80.75;99851.28;5092982;28;20064;-85
2021/03/23 01:15:49;;;;;;;20.10;7.03;;;;;;;3.05;80.62;99847.38;5092641;28;20131;-85
2021/03/23 01:18:15;;;;;;;20.27;7.25;;;;;;;3.01;80.16;99850.28;5090403;28;20130;-83
2021/03/23 01:20:41;;;;;;;14.55;7.20;;;;;;;3.15;79.87;99865.31;5092846;28;20044;-85
2021/03/23 01:23:08;;;;;;;14.73;7.10;;;;;;;3.07;79.65;99848.09;5091785;28;20040;-85
2021/03/23 01:25:34;;;;;;;12.82;6.72;;;;;;;3.23;79.88;99872.78;5091790;28;20048;-84
2021/03/23 01:28:01;;;;;;;14.52;6.65;;;;;;;3.06;79.83;99843.72;5092769;28;20622;-85
2021/03/23 01:30:30;;;;;;;13.75;7.15;;;;;;;3.04;80.00;99840.28;5092467;28;20043;-85
2021/03/23 01:32:57;;;;;;;22.27;7.10;;;;;;;3.17;79.76;99859.84;5091170;28;20408;-85
2021/03/23 01:35:26;;;;;;;15.48;6.85;;;;;;;3.08;80.00;99850.66;5091640;28;20052;-85
2021/03/23 01:37:53;;;;;;;13.50;6.55;;;;;;;3.10;79.79;99850.53;5092661;28;20052;-85
2021/03/23 01:40:23;;;;;;;12.73;6.72;;;;;;;3.09;79.80;99855.06;5092031;28;20051;-85
2021/03/23 01:42:53;;;;;;;15.60;6.65;;;;;;;3.14;79.34;99852.00;5088690;28;20475;-85
2021/03/23 01:45:24;;;;;;;17.42;7.20;;;;;;;3.23;79.80;99859.34;5091545;28;20197;-85
2021/03/23 01:47:53;;;;;;;14.80;6.50;;;;;;;3.30;79.66;99862.41;5092273;28;20048;-85
2021/03/23 01:50:20;;;;;;;16.08;7.10;;;;;;;3.19;80.32;99860.56;5091906;28;20040;-85
2021/03/23 01:52:52;;;;;;;13.27;6.28;;;;;;;3.05;80.74;99853.59;5092200;28;20052;-85
2021/03/23 01:55:20;;;;;;;12.63;7.05;;;;;;;3.01;80.68;99850.28;5091454;28;20492;-85
2021/03/23 01:57:48;;;;;;;15.10;7.30;;;;;;;3.02;80.81;99856.50;5091381;28;20046;-84
2021/03/23 02:00:15;;;;;;;14.27;6.68;;;;;;;3.05;80.91;99864.31;5086325;28;20044;-84
2021/03/23 02:02:42;;;;;;;20.30;7.18;;;;;;;3.06;80.84;99858.00;5085895;28;20040;-84
2021/03/23 02:05:20;;;;;;;17.05;7.07;;;;;;;2.96;81.07;99847.09;5091468;28;20048;-84
2021/03/23 02:07:46;;;;;;;15.82;6.80;;;;;;;2.87;81.33;99841.59;5092481;28;20462;-84
2021/03/23 02:10:14;;;;;;;17.63;6.47;;;;;;;2.97;81.15;99854.19;5092092;28;20048;-85
2021/03/23 02:12:41;;;;;;;17.92;6.82;;;;;;;3.04;81.05;99851.88;5091381;28;20059;-85
2021/03/23 02:15:09;;;;;;;15.73;8.20;;;;;;;3.03;80.98;99851.97;5090706;28;20131;-84
2021/03/23 02:17:38;;;;;;;19.65;9.25;;;;;;;2.88;80.96;99833.41;5091000;28;20067;-84
2021/03/23 02:20:11;;;;;;;14.23;7.22;;;;;;;2.99;81.22;99849.53;5089616;28;20601;-85
2021/03/23 02:22:40;;;;;;;18.05;8.60;;;;;;;2.87;81.28;99830.84;5091672;28;20044;-85
2021/03/23 02:25:09;;;;;;;15.20;7.93;;;;;;;2.86;81.19;99831.81;5090798;28;20134;-85
2021/03/23 02:27:36;;;;;;;15.70;7.60;;;;;;;2.84;81.58;99842.69;5091149;28;20048;-85
2021/03/23 02:30:07;;;;;;;19.05;6.90;;;;;;;2.85;81.36;99843.56;5091776;28;20048;-85
2021/03/23 02:32:34;;;;;;;13.55;6.50;;;;;;;2.76;81.36;99839.75;5090283;28;20043;-85
2021/03/23 02:35:00;;;;;;;15.35;6.63;;;;;;;2.88;81.45;99841.47;5088467;28;20141;-85
2021/03/23 02:37:26;;;;;;;12.65;6.68;;;;;;;2.77;80.91;99841.44;5091100;28;20052;-84
2021/03/23 02:39:54;;;;;;;17.50;7.40;;;;;;;2.83;81.23;99840.97;5091555;28;20134;-85
2021/03/23 02:42:22;;;;;;;14.38;7.68;;;;;;;2.75;81.63;99827.28;5090901;28;20051;-85
2021/03/23 02:44:49;;;;;;;18.38;7.10;;;;;;;2.85;81.43;99838.19;5090200;28;20112;-85
2021/03/23 02:47:16;;;;;;;15.48;8.02;;;;;;;2.96;81.40;99849.78;5090921;28;20048;-84
2021/03/23 02:49:43;;;;;;;23.55;8.23;;;;;;;2.87;81.29;99833.53;5091049;28;20487;-85
2021/03/23 02:52:10;;;;;;;15.65;6.70;;;;;;;2.94;80.92;99834.78;5090295;28;20162;-85
2021/03/23 02:54:37;;;;;;;13.63;6.68;;;;;;;2.97;80.94;99840.75;5090737;28;20052;-85
2021/03/23 02:57:06;;;;;;;17.45;7.80;;;;;;;2.78;81.50;99819.00;5090158;28;20044;-85
2021/03/23 02:59:32;;;;;;;23.50;8.15;;;;;;;2.75;81.38;99813.84;5090350;28;20518;-85
2021/03/23 03:01:59;;;;;;;17.35;6.72;;;;;;;2.78;81.83;99819.84;5090902;28;20041;-85
2021/03/23 03:04:25;;;;;;;18.25;7.57;;;;;;;2.86;81.82;99845.25;5087493;28;20198;-85
2021/03/23 03:06:52;;;;;;;21.48;7.28;;;;;;;2.83;82.06;99835.59;5090222;28;20052;-85
2021/03/23 03:09:18;;;;;;;17.70;8.23;;;;;;;2.74;82.36;99828.25;5080415;28;20197;-85
2021/03/23 03:11:45;;;;;;;15.35;8.73;;;;;;;2.77;82.21;99847.69;5088758;28;20048;-85
2021/03/23 03:14:12;;;;;;;16.67;7.18;;;;;;;2.69;82.39;99833.13;5090157;28;20051;-85
2021/03/23 03:16:38;;;;;;;12.10;7.65;;;;;;;2.69;82.38;99844.72;5090384;28;20048;-85
2021/03/23 03:19:05;;;;;;;19.15;8.02;;;;;;;2.73;82.40;99846.19;5088375;28;20059;-84
2021/03/23 03:21:31;;;;;;;16.23;7.07;;;;;;;2.69;83.34;99850.09;5090785;28;20584;-84
2021/03/23 03:23:58;;;;;;;17.60;7.90;;;;;;;2.63;82.59;99837.13;5090468;28;20048;-85
2021/03/23 03:26:24;;;;;;;20.48;8.27;;;;;;;2.67;82.92;99835.94;5088665;28;20494;-84
2021/03/23 03:28:52;;;;;;;28.25;8.45;;;;;;;2.64;82.98;99841.53;5090983;28;20129;-85
2021/03/23 03:31:22;;;;;;;14.13;7.10;;;;;;;2.66;82.90;99842.25;5094050;28;20059;-85
2021/03/23 03:33:49;;;;;;;18.67;7.75;;;;;;;2.72;82.41;99851.69;5093436;28;20056;-84
2021/03/23 03:36:16;;;;;;;21.42;8.38;;;;;;;2.62;82.90;99828.22;5093835;28;20040;-84
2021/03/23 03:38:42;;;;;;;13.80;7.53;;;;;;;2.73;82.53;99838.13;5094513;28;20492;-85
2021/03/23 03:41:09;;;;;;;22.98;8.27;;;;;;;2.75;82.76;99844.25;5094650;28;20040;-85
2021/03/23 03:43:35;;;;;;;21.95;8.30;;;;;;;2.76;81.81;99840.59;5084843;28;20286;-85
2021/03/23 03:46:03;;;;;;;19.25;7.78;;;;;;;2.83;81.79;99841.84;5094067;28;20416;-85
2021/03/23 03:48:31;;;;;;;18.83;7.72;;;;;;;2.73;82.21;99830.09;5094339;28;20492;-84
2021/03/23 03:50:57;;;;;;;16.23;7.28;;;;;;;2.69;82.52;99830.44;5094685;28;20052;-84
2021/03/23 03:53:24;;;;;;;16.52;8.40;;;;;;;2.69;82.69;99833.13;5094279;28;20135;-85
2021/03/23 03:55:52;;;;;;;13.13;7.18;;;;;;;2.65;82.96;99836.06;5093415;28;20055;-85
2021/03/23 03:58:19;;;;;;;20.13;8.55;;;;;;;2.60;83.22;99840.06;5094233;28;20061;-84
2021/03/23 04:00:46;;;;;;;18.65;7.05;;;;;;;2.59;83.01;99832.97;5092911;28;20492;-84
2021/03/23 04:03:15;;;;;;;15.52;7.72;;;;;;;2.57;83.38;99843.81;5093817;28;20067;-84
2021/03/23 04:05:45;;;;;;;18.80;8.07;;;;;;;2.53;83.44;99834.31;5093678;28;20071;-85
2021/03/23 04:08:12;;;;;;;14.48;7.03;;;;;;;2.55;83.51;99836.88;5094181;28;20052;-84
2021/03/23 04:10:40;;;;;;;24.80;8.60;;;;;;;2.62;83.53;99840.78;5094361;28;20047;-84
2021/03/23 04:13:06;;;;;;;26.23;9.13;;;;;;;2.60;82.98;99830.16;5094206;28;20075;-85
2021/03/23 04:15:35;;;;;;;18.10;8.70;;;;;;;2.67;82.53;99833.25;5089497;28;20076;-85
2021/03/23 04:18:03;;;;;;;23.70;8.18;;;;;;;2.61;82.85;99842.63;5092816;28;20052;-84
2021/03/23 04:20:32;;;;;;;15.23;8.32;;;;;;;2.68;83.13;99861.81;5082367;28;20430;-85
2021/03/23 04:23:00;;;;;;;15.60;7.13;;;;;;;2.60;82.88;99845.41;5094119;28;20047;-84
2021/03/23 04:25:29;;;;;;;21.38;8.13;;;;;;;2.69;82.67;99855.44;5093073;28;20043;-84
2021/03/23 04:27:56;;;;;;;20.55;7.80;;;;;;;2.68;82.65;99847.53;5094052;28;20052;-84
2021/03/23 04:30:25;;;;;;;15.50;7.95;;;;;;;2.72;82.72;99868.63;5093934;28;20052;-85
2021/03/23 04:32:54;;;;;;;16.35;9.13;;;;;;;2.71;82.71;99860.72;5086918;28;20495;-85
2021/03/23 04:35:25;;;;;;;18.27;8.27;;;;;;;2.70;82.83;99859.00;5093658;28;20092;-84
2021/03/23 04:37:53;;;;;;;18.90;8.68;;;;;;;2.62;83.14;99851.50;5094101;28;20058;-85
2021/03/23 04:40:20;;;;;;;19.23;7.75;;;;;;;2.56;83.14;99844.81;5093560;28;20063;-84
2021/03/23 04:42:47;;;;;;;19.45;8.43;;;;;;;2.64;82.65;99863.00;5093339;28;20055;-84
2021/03/23 04:45:15;;;;;;;18.42;8.43;;;;;;;2.64;82.70;99861.19;5093236;28;20052;-85
2021/03/23 04:47:41;;;;;;;18.48;7.80;;;;;;;2.64;82.94;99871.91;5083470;28;20059;-85
2021/03/23 04:50:09;;;;;;;13.48;7.80;;;;;;;2.67;82.73;99870.84;5093080;28;20046;-84
2021/03/23 04:52:35;;;;;;;21.42;8.13;;;;;;;2.68;83.00;99877.06;5092818;28;20040;-85
2021/03/23 04:55:02;;;;;;;17.42;7.82;;;;;;;2.70;83.26;99881.34;5092592;28;20059;-85
2021/03/23 04:57:29;;;;;;;24.95;8.93;;;;;;;2.60;83.49;99877.63;5093151;28;20051;-85
2021/03/23 04:59:56;;;;;;;18.77;8.60;;;;;;;2.56;83.34;99874.34;5093245;28;20047;-85
2021/03/23 05:02:22;;;;;;;17.10;8.07;;;;;;;2.66;83.40;99887.91;5092162;28;20058;-85
2021/03/23 05:05:00;;;;;;;16.13;8.38;;;;;;;2.54;83.58;99864.69;5091562;28;20040;-85
2021/03/23 05:07:26;;;;;;;17.75;7.65;;;;;;;2.69;83.43;99881.47;5093481;28;20441;-85
2021/03/23 05:09:54;;;;;;;17.20;9.93;;;;;;;2.63;83.47;99882.78;5093089;28;20078;-85
2021/03/23 05:12:20;;;;;;;24.65;8.07;;;;;;;2.63;83.58;99890.81;5093245;28;20064;-84
2021/03/23 05:14:50;;;;;;;18.15;7.35;;;;;;;2.50;83.92;99874.81;5091696;28;20086;-85
2021/03/23 05:17:19;;;;;;;;;;;;;;;2.64;83.54;99876.44;5093624;28;20054;-85
2021/03/23 05:19:53;;;;;;;21.52;7.78;;;;;;;2.62;83.61;99878.38;5082822;28;19920;-85
2021/03/23 05:22:23;;;;;;;17.02;8.65;;;;;;;2.55;83.75;99874.47;5092534;28;20310;-85
2021/03/23 05:24:49;;;;;;;21.67;8.65;;;;;;;2.61;83.61;99882.03;5092485;28;20484;-85
2021/03/23 05:27:17;;;;;;;13.93;6.93;;;;;;;2.67;82.94;99896.84;5092089;28;20051;-85
2021/03/23 05:29:44;;;;;;;16.60;7.80;;;;;;;2.59;83.64;99898.25;5092919;28;20066;-85
2021/03/23 05:32:11;;;;;;;18.42;8.05;;;;;;;2.56;83.19;99871.66;5091181;28;20077;-85
2021/03/23 05:34:38;;;;;;;19.42;7.93;;;;;;;2.69;83.31;99900.25;5092763;28;20051;-85
2021/03/23 05:37:05;;;;;;;22.02;8.10;;;;;;;2.67;82.95;99896.84;5085928;28;20043;-85
2021/03/23 05:39:32;;;;;;;15.23;8.38;;;;;;;2.54;83.58;99886.16;5092464;28;20044;-85
2021/03/23 05:42:08;;;;;;;17.92;7.53;;;;;;;2.64;83.56;99898.75;5084417;28;20062;-85
2021/03/23 05:44:55;;;;;;;14.90;7.68;;;;;;;2.61;83.29;99898.16;5091401;28;20080;-85
2021/03/23 05:47:30;;;;;;;21.38;8.13;;;;;;;2.60;83.05;99899.97;5090634;28;20064;-85
2021/03/23 05:50:02;;;;;;;18.88;8.60;;;;;;;2.52;83.86;99913.13;5091141;28;20132;-85
2021/03/23 05:52:34;;;;;;;13.75;7.70;;;;;;;2.60;83.47;99902.63;5091723;28;20067;-85
2021/03/23 05:55:18;;;;;;;19.38;8.18;;;;;;;2.59;83.64;99895.59;5091353;28;20131;-85
2021/03/23 05:57:47;;;;;;;18.73;9.07;;;;;;;2.63;83.29;99897.06;5090391;28;20393;-85
2021/03/23 06:00:23;;;;;;;24.70;8.75;;;;;;;2.76;83.19;99918.47;5091551;28;20530;-85
2021/03/23 06:02:58;;;;;;;24.70;9.00;;;;;;;2.59;83.41;99902.75;5080354;28;20048;-86
2021/03/23 06:05:35;;;;;;;19.25;8.98;;;;;;;2.66;83.06;99914.75;5090978;28;20143;-85
2021/03/23 06:08:02;;;;;;;17.60;8.65;;;;;;;2.66;83.53;99895.97;5091657;28;20051;-84
2021/03/23 06:10:37;;;;;;;23.10;9.35;;;;;;;2.74;82.88;99907.00;5091799;28;20553;-83
2021/03/23 06:13:20;;;;;;;20.70;10.02;;;;;;;2.81;82.71;99905.53;5092332;28;20073;-83
2021/03/23 06:16:03;;;;;;;20.25;8.63;;;;;;;2.76;83.05;99902.34;5084350;28;20495;-84
2021/03/23 06:18:35;;;;;;;23.17;9.68;;;;;;;2.83;83.13;99929.56;5090243;28;20062;-84
2021/03/23 06:21:06;;;;;;;22.38;8.50;;;;;;;2.80;83.09;99930.69;5091916;28;20446;-84
2021/03/23 06:23:56;;;;;;;20.67;9.25;;;;;;;2.94;82.83;99940.38;5091403;28;20056;-84
2021/03/23 06:26:31;;;;;;;23.23;9.75;;;;;;;2.82;83.09;99926.03;5089902;28;20048;-84
2021/03/23 06:29:06;;;;;;;26.35;10.27;;;;;;;2.80;83.13;99925.31;5092174;28;20050;-84
2021/03/23 06:31:59;;;;;;;15.05;8.68;;;;;;;2.91;83.28;99940.59;5080957;28;20055;-84
2021/03/23 06:34:29;;;;;;;23.90;9.73;;;;;;;3.03;83.33;99941.50;5082939;28;20453;-83
2021/03/23 06:36:56;;;;;;;15.73;8.30;;;;;;;3.01;83.72;99943.44;5091752;28;20491;-84
2021/03/23 06:39:23;;;;;;;16.67;8.40;;;;;;;2.98;83.96;99932.94;5091255;28;20105;-84
2021/03/23 06:41:56;;;;;;;22.45;10.27;;;;;;;2.97;83.79;99920.50;5091324;28;20381;-84
2021/03/23 06:44:27;;;;;;;29.92;11.55;;;;;;;3.19;83.60;99935.78;5090804;28;20044;-84
2021/03/23 06:46:55;;;;;;;21.63;10.05;;;;;;;3.19;82.95;99931.28;5090538;28;20139;-84
2021/03/23 06:49:29;;;;;;;25.40;10.60;;;;;;;3.23;82.96;99941.81;5090285;28;20499;-84
2021/03/23 06:52:21;;;;;;;25.20;10.07;;;;;;;3.27;83.17;99917.25;5075857;28;20428;-84
2021/03/23 06:55:25;;;;;;;25.52;10.77;;;;;;;3.48;81.98;99946.13;5090178;28;20056;-85
2021/03/23 06:57:52;;;;;;;19.75;9.43;;;;;;;3.37;82.00;99930.81;5077612;28;20073;-84
2021/03/23 07:00:26;;;;;;;29.30;11.43;;;;;;;3.47;81.90;99941.72;5091104;28;20052;-84
2021/03/23 07:02:55;;;;;;;23.05;10.02;;;;;;;3.63;80.76;99949.41;5091239;28;20055;-84
2021/03/23 07:05:33;;;;;;;25.85;10.27;;;;;;;3.55;81.26;99931.22;5086816;28;20052;-85
2021/03/23 07:08:02;;;;;;;20.08;10.45;;;;;;;3.75;80.26;99955.66;5090686;28;20140;-84
2021/03/23 07:10:34;;;;;;;22.27;10.57;;;;;;;3.84;79.39;99952.25;5090534;28;20139;-85
2021/03/23 07:13:06;;;;;;;23.27;10.73;;;;;;;3.90;79.79;99971.44;5091041;28;20052;-85
2021/03/23 07:15:35;;;;;;;29.13;11.25;;;;;;;4.05;79.14;99973.88;5090194;28;20210;-84
2021/03/23 07:18:11;;;;;;;27.27;13.57;;;;;;;3.96;79.65;99963.84;5090832;28;20066;-84
2021/03/23 07:20:43;;;;;;;36.05;12.65;;;;;;;3.96;79.59;99966.53;5090458;28;20040;-84
2021/03/23 07:23:39;;;;;;;27.42;10.57;;;;;;;4.11;79.50;99973.41;5089350;28;20052;-81
2021/03/23 07:26:23;;;;;;;30.17;13.70;;;;;;;4.12;79.48;99971.56;5045162;28;20045;-81
2021/03/23 07:28:50;;;;;;;30.50;10.82;;;;;;;4.19;78.75;99975.47;5080707;28;20048;-84
2021/03/23 07:31:22;;;;;;;29.50;12.65;;;;;;;4.26;78.50;99974.00;5079141;28;20490;-84
2021/03/23 07:33:59;;;;;;;26.10;10.73;;;;;;;4.27;78.99;99967.63;5090436;28;20487;-84
2021/03/23 07:36:31;;;;;;;31.35;15.07;;;;;;;4.36;78.96;99971.41;5090516;28;20083;-85
2021/03/23 07:39:03;;;;;;;24.35;11.38;;;;;;;4.37;79.03;99984.75;5090452;28;20129;-85
2021/03/23 07:41:36;;;;;;;28.98;11.35;;;;;;;4.31;79.06;99966.41;5090041;28;20076;-85
2021/03/23 07:44:07;;;;;;;25.13;11.55;;;;;;;4.41;78.34;99974.56;5089819;28;20424;-85
2021/03/23 07:46:39;;;;;;;33.85;13.15;;;;;;;4.45;77.99;99985.97;5089633;28;20048;-84
2021/03/23 07:49:19;;;;;;;26.15;11.10;;;;;;;4.43;77.23;99973.47;5090128;28;20156;-84
2021/03/23 07:51:54;;;;;;;27.50;11.80;;;;;;;4.42;77.33;99997.81;5074336;28;20052;-84
2021/03/23 07:54:34;;;;;;;32.58;11.77;;;;;;;4.48;77.44;99994.63;5088829;28;20103;-84
2021/03/23 07:57:37;;;;;;;28.08;12.52;;;;;;;4.54;77.61;99987.91;5090485;28;20052;-84
2021/03/23 08:00:16;;;;;;;32.03;13.02;;;;;;;4.50;77.07;99968.44;5016703;28;20046;-84
2021/03/23 08:03:25;;;;;;;36.45;14.48;;;;;;;4.52;76.08;99969.16;5076861;28;20055;-84
2021/03/23 08:05:56;;;;;;;32.83;12.98;;;;;;;4.53;76.89;99975.41;5069170;28;20109;-85
2021/03/23 08:08:43;;;;;;;31.13;14.45;;;;;;;4.72;76.76;99977.44;5090162;28;20139;-85
2021/03/23 08:11:25;;;;;;;31.90;14.40;;;;;;;4.77;76.74;99978.78;5089813;28;20071;-85
2021/03/23 08:14:06;;;;;;;32.28;15.75;;;;;;;4.96;75.67;99988.00;5090790;28;20496;-84
2021/03/23 08:16:49;;;;;;;39.65;16.33;;;;;;;4.94;74.63;99987.28;5092378;28;20048;-81
2021/03/23 08:19:40;;;;;;;35.58;14.95;;;;;;;5.20;75.58;99985.06;5073225;28;20063;-83
2021/03/23 08:22:50;;;;;;;32.22;14.38;;;;;;;5.29;74.59;99973.50;5083649;28;20051;-81
2021/03/23 08:25:27;;;;;;;29.90;13.40;;;;;;;5.32;74.33;99981.31;5093378;28;20083;-81
2021/03/23 08:28:21;;;;;;;28.02;13.65;;;;;;;5.19;73.53;99985.22;5089754;28;20054;-82
2021/03/23 08:31:06;;;;;;;27.67;13.48;;;;;;;5.16;74.05;99974.69;5074268;28;20047;-83
2021/03/23 08:33:49;;;;;;;31.58;13.02;;;;;;;5.36;74.44;99998.13;5092462;28;20048;-83
2021/03/23 08:36:31;;;;;;;34.10;13.50;;;;;;;5.44;73.43;100002.84;5081974;28;20052;-83
2021/03/23 08:39:07;;;;;;;32.17;14.98;;;;;;;5.45;73.27;99985.66;5092252;28;20048;-83
2021/03/23 08:41:50;;;;;;;36.22;15.45;;;;;;;5.75;73.34;99981.31;5092551;28;20067;-83
2021/03/23 08:44:29;;;;;;;31.55;14.52;;;;;;;5.52;72.88;99977.91;5092033;28;20048;-83
2021/03/23 08:46:58;;;;;;;32.30;13.82;;;;;;;5.78;72.62;100005.31;5090240;28;20089;-83
2021/03/23 08:49:28;;;;;;;31.05;13.93;;;;;;;5.79;72.86;99998.94;5074793;28;20049;-84
2021/03/23 08:52:16;;;;;;;39.42;14.63;;;;;;;5.88;71.58;99992.75;5089125;28;20551;-85
2021/03/23 08:54:51;;;;;;;35.58;15.27;;;;;;;5.86;71.14;100005.53;5088234;28;20435;-83
2021/03/23 08:57:18;;;;;;;39.85;15.18;;;;;;;5.86;70.69;100002.81;5076519;28;20504;-82
2021/03/23 08:59:58;;;;;;;33.70;15.98;;;;;;;5.88;70.48;99998.13;5086962;28;20058;-81
2021/03/23 09:02:46;;;;;;;30.08;12.95;;;;;;;5.98;69.71;100004.47;5092005;28;20048;-83
2021/03/23 09:05:58;;;;;;;39.28;15.85;;;;;;;5.68;69.65;99989.94;5091633;28;20047;-82
2021/03/23 09:08:46;;;;;;;38.10;15.82;;;;;;;5.85;69.19;99984.91;5086596;28;20044;-82
2021/03/23 09:11:19;;;;;;;38.60;17.40;;;;;;;6.20;68.27;99998.03;5092659;28;20062;-82
2021/03/23 09:14:16;;;;;;;34.40;15.82;;;;;;;6.14;68.47;100005.81;5092665;28;20052;-83
2021/03/23 09:16:52;;;;;;;35.05;16.38;;;;;;;6.25;68.79;99994.06;5091742;28;20059;-82
2021/03/23 09:19:35;;;;;;;32.30;15.52;;;;;;;6.19;68.84;99988.22;5089768;28;20559;-83
2021/03/23 09:22:32;;;;;;;33.83;15.05;;;;;;;6.41;67.87;99989.00;5092295;28;20484;-83
2021/03/23 09:25:46;;;;;;;30.15;13.68;;;;;;;6.31;68.26;100010.59;5084031;28;20055;-83
2021/03/23 09:28:46;;;;;;;27.55;14.43;;;;;;;6.39;68.52;99988.28;5082654;28;20127;-83
2021/03/23 09:31:20;;;;;;;31.48;14.65;;;;;;;6.55;68.09;99980.50;5092583;28;20097;-83
2021/03/23 09:33:49;;;;;;;32.60;13.52;;;;;;;6.71;66.77;100003.44;5091811;28;20105;-83
2021/03/23 09:36:49;;;;;;;35.73;14.60;;;;;;;6.77;66.03;99992.06;5091505;28;20484;-83
2021/03/23 09:39:46;;;;;;;32.97;14.07;;;;;;;6.91;66.22;99999.75;5092566;28;20064;-83
2021/03/23 09:42:32;;;;;;;31.77;12.85;;;;;;;6.82;66.01;99995.22;5091060;28;20044;-83
2021/03/23 09:45:23;;;;;;;32.80;13.40;;;;;;;6.88;66.04;99994.66;5075032;28;20066;-86
2021/03/23 09:48:12;;;;;;;33.60;14.27;;;;;;;7.15;64.81;100006.63;5063569;28;20040;-86
2021/03/23 09:50:52;;;;;;;25.92;12.30;;;;;;;7.08;65.18;99998.19;5033839;28;20059;-87
2021/03/23 09:53:35;;;;;;;31.77;13.70;;;;;;;7.08;65.17;100011.72;5093803;28;20052;-86
2021/03/23 09:56:12;;;;;;;33.63;12.35;;;;;;;7.01;64.25;99988.09;5093635;28;20052;-86
2021/03/23 09:58:40;;;;;;;24.42;11.30;;;;;;;6.79;64.04;99991.91;5093964;28;20044;-86
2021/03/23 10:01:13;;;;;;;24.25;11.93;;;;;;;6.72;64.98;99980.81;5093825;28;20056;-86
2021/03/23 10:20:42;;;;;;;33.60;10.63;;;;;;;7.01;63.34;99991.66;4959503;28;20094;-86
2021/03/23 10:27:03;;;;;;;21.67;10.55;;;;;;;7.23;62.89;99957.22;4988225;28;20637;-87
2021/03/23 10:30:10;;;;;;;21.60;10.02;;;;;;;7.23;61.76;99971.59;4915128;29;20095;-87
2021/03/23 10:42:52;;;;;;;30.30;10.63;;;;;;;7.46;61.46;99992.06;5003584;28;20042;-83
2021/03/23 10:45:41;;;;;;;23.55;11.27;;;;;;;7.76;61.17;99982.88;5092176;28;20097;-87
2021/03/23 10:48:32;;;;;;;22.70;10.90;;;;;;;7.51;61.25;99979.81;5093820;28;20056;-88
2021/03/23 10:51:17;;;;;;;19.65;9.75;;;;;;;7.42;61.23;99980.66;5077466;28;20109;-87
2021/03/23 10:57:15;;;;;;;18.10;8.90;;;;;;;7.61;58.71;99988.75;5071779;28;20131;-87
2021/03/23 10:59:44;;;;;;;13.27;7.40;;;;;;;7.63;56.65;99980.50;5091068;28;20067;-87
2021/03/23 11:02:23;;;;;;;18.23;8.23;;;;;;;7.85;57.62;99989.28;5093421;28;20415;-87
2021/03/23 11:05:11;;;;;;;17.60;9.00;;;;;;;7.60;58.38;99970.84;5093288;28;20044;-87
2021/03/23 11:07:55;;;;;;;19.20;9.00;;;;;;;7.84;57.88;99955.91;5093330;28;20052;-87
2021/03/23 11:10:31;;;;;;;25.48;12.07;;;;;;;8.00;58.82;99966.13;5093220;28;20108;-87
2021/03/23 11:13:05;;;;;;;23.45;11.15;;;;;;;7.58;59.60;99961.13;5093560;28;20044;-86
2021/03/23 11:15:38;;;;;;;24.73;11.40;;;;;;;7.59;59.91;99966.41;5093183;28;20105;-87
2021/03/23 11:18:16;;;;;;;19.98;9.65;;;;;;;7.60;59.16;99976.25;5092564;28;20055;-87
2021/03/23 11:20:46;;;;;;;16.67;6.90;;;;;;;7.59;55.33;99973.69;5093471;28;20056;-87
2021/03/23 11:23:31;;;;;;;15.68;6.72;;;;;;;7.63;54.80;99972.38;5090956;28;20044;-87
2021/03/23 11:25:58;;;;;;;19.17;8.48;;;;;;;7.56;55.29;99961.28;5080949;28;20492;-87
2021/03/23 11:28:26;;;;;;;17.17;8.73;;;;;;;7.74;54.98;99977.63;5092468;28;20052;-86
2021/03/23 11:30:52;;;;;;;18.80;9.30;;;;;;;7.57;56.05;99949.47;5091025;28;20048;-86
2021/03/23 11:33:19;;;;;;;21.15;8.80;;;;;;;7.78;58.02;99980.88;5092248;28;20530;-86
2021/03/23 11:35:47;;;;;;;17.90;8.68;;;;;;;7.77;56.88;99981.91;5087674;28;20044;-85
2021/03/23 11:38:16;;;;;;;18.17;9.20;;;;;;;7.49;57.84;99972.84;5092375;28;20043;-86
2021/03/23 11:40:49;;;;;;;21.92;11.05;;;;;;;7.38;58.54;99958.47;5080756;28;20048;-86
2021/03/23 11:43:28;;;;;;;19.05;9.05;;;;;;;7.33;57.34;99951.78;5091686;28;20172;-86
2021/03/23 11:46:11;;;;;;;18.08;7.88;;;;;;;7.42;56.43;99962.59;5091425;28;20044;-86
2021/03/23 11:48:43;;;;;;;19.48;9.35;;;;;;;7.48;56.52;99958.44;5090960;28;20054;-86
2021/03/23 11:51:11;;;;;;;21.52;8.60;;;;;;;7.66;56.08;99950.41;5087925;28;20040;-86
2021/03/23 11:53:38;;;;;;;19.40;9.02;;;;;;;7.53;55.40;99955.31;5095657;28;20453;-86
2021/03/23 11:56:05;;;;;;;26.20;10.07;;;;;;;7.58;56.26;99971.97;5095057;28;20142;-86
2021/03/23 11:58:32;;;;;;;20.17;8.57;;;;;;;7.52;56.88;99957.16;5079183;28;20101;-87
2021/03/23 12:01:00;;;;;;;20.27;9.10;;;;;;;7.50;55.75;99963.69;5095540;28;20457;-87
2021/03/23 12:03:30;;;;;;;22.45;10.73;;;;;;;7.59;57.50;99960.16;5095185;28;20044;-85
2021/03/23 12:05:57;;;;;;;20.08;10.05;;;;;;;7.80;57.74;99973.47;5094647;28;20070;-85
2021/03/23 12:08:29;;;;;;;15.63;7.93;;;;;;;7.67;54.91;99951.28;5084133;28;20075;-86
2021/03/23 12:11:12;;;;;;;22.00;9.85;;;;;;;7.90;56.29;99959.91;5094882;28;20112;-86
2021/03/23 12:13:53;;;;;;;18.02;9.10;;;;;;;7.76;56.65;99953.13;5093553;28;20048;-85
2021/03/23 12:16:27;;;;;;;20.50;7.82;;;;;;;7.74;54.48;99963.25;5075356;28;20106;-85
2021/03/23 12:19:04;;;;;;;15.20;7.88;;;;;;;7.80;54.01;99970.78;5089511;28;20040;-85
2021/03/23 12:21:31;;;;;;;13.90;7.68;;;;;;;7.75;54.02;99948.69;5096049;28;20105;-85
2021/03/23 12:23:58;;;;;;;17.92;8.15;;;;;;;7.91;53.62;99948.06;5095883;28;20130;-85
2021/03/23 12:26:31;;;;;;;21.63;8.82;;;;;;;7.88;54.11;99948.38;5095975;28;20484;-85
2021/03/23 12:29:28;;;;;;;17.23;9.02;;;;;;;8.14;54.90;99962.06;5095429;28;20047;-85
2021/03/23 12:31:56;;;;;;;17.55;8.25;;;;;;;8.23;53.50;99952.22;5095278;28;20051;-85
2021/03/23 12:34:25;;;;;;;19.30;9.45;;;;;;;8.27;53.74;99935.50;5095655;28;20052;-85